Time;durP1;ratioP1;P1;durP2;ratioP2;P2;SDS_P1;SDS_P2;PMS_P1;PMS_P2;Temp;Humidity;BMP_temperature;BMP_pressure;BME280_temperature;BME280_humidity;BME280_pressure;Samples;Min_cycle;Max_cycle;Signal;HPM_P1;HPM_P2
2021/08/07 00:00:11;;;;;;;6.18;5.43;;;;;;;14.84;100.00;100251.13;6250909;28;20072;-76
2021/08/07 00:03:13;;;;;;;8.35;5.85;;;;;;;14.82;100.00;100247.78;6250643;28;20049;-76
2021/08/07 00:06:14;;;;;;;7.40;5.10;;;;;;;14.80;100.00;100247.06;6250679;28;20053;-76
2021/08/07 00:09:16;;;;;;;11.93;5.40;;;;;;;14.80;100.00;100241.75;6250913;28;20045;-75
2021/08/07 00:12:17;;;;;;;5.55;4.88;;;;;;;14.76;100.00;100240.31;6251007;28;20072;-76
2021/08/07 00:15:20;;;;;;;9.57;4.88;;;;;;;14.74;100.00;100236.97;6250559;28;20484;-75
2021/08/07 00:18:21;;;;;;;8.77;5.47;;;;;;;14.74;100.00;100240.44;6250520;28;20050;-75
2021/08/07 00:21:23;;;;;;;5.88;4.70;;;;;;;14.68;100.00;100236.50;6250493;28;20046;-75
2021/08/07 00:24:24;;;;;;;11.48;5.13;;;;;;;14.68;100.00;100244.44;6250454;28;20412;-76
2021/08/07 00:27:25;;;;;;;7.47;4.95;;;;;;;14.67;100.00;100236.59;6250395;28;20053;-76
2021/08/07 00:30:28;;;;;;;9.27;5.35;;;;;;;14.66;100.00;100240.19;6250429;28;20515;-76
2021/08/07 00:33:29;;;;;;;5.60;4.30;;;;;;;14.65;100.00;100241.19;6250039;28;20056;-76
2021/08/07 00:36:31;;;;;;;14.63;4.82;;;;;;;14.62;100.00;100242.25;6322383;22;20053;-73
2021/08/07 00:39:32;;;;;;;9.40;5.15;;;;;;;14.63;100.00;100229.88;6291570;28;20041;-73
2021/08/07 00:42:34;;;;;;;9.90;5.28;;;;;;;14.61;100.00;100237.91;6277348;28;20041;-73
2021/08/07 00:45:37;;;;;;;5.40;4.03;;;;;;;14.58;100.00;100235.53;6273267;28;20496;-73
2021/08/07 00:48:38;;;;;;;7.68;4.88;;;;;;;14.55;100.00;100229.63;6248577;28;20056;-73
2021/08/07 00:51:39;;;;;;;8.48;4.40;;;;;;;14.55;100.00;100234.94;6225137;28;20050;-73
2021/08/07 00:54:41;;;;;;;5.97;4.63;;;;;;;14.53;100.00;100232.38;6225053;28;20056;-72
2021/08/07 00:57:42;;;;;;;10.52;5.35;;;;;;;14.51;100.00;100229.03;6225209;28;20049;-74
2021/08/07 01:00:45;;;;;;;7.28;5.45;;;;;;;14.48;100.00;100229.25;6225137;28;20050;-73
2021/08/07 01:03:49;;;;;;;6.10;4.90;;;;;;;14.44;100.00;100227.78;6224529;28;20501;-73
2021/08/07 01:06:55;;;;;;;14.60;5.13;;;;;;;14.42;100.00;100232.38;6264859;28;20041;-73
2021/08/07 01:10:05;;;;;;;12.38;4.95;;;;;;;14.40;100.00;100229.00;6274039;28;20048;-73
2021/08/07 01:13:10;;;;;;;5.15;4.65;;;;;;;14.37;100.00;100223.94;6274186;28;20053;-73
2021/08/07 01:16:20;;;;;;;9.48;4.90;;;;;;;14.38;100.00;100226.47;6273735;28;20488;-73
2021/08/07 01:19:25;;;;;;;13.70;5.43;;;;;;;14.40;100.00;100213.16;6273910;28;20410;-74
2021/08/07 01:22:33;;;;;;;7.53;5.20;;;;;;;14.39;100.00;100220.22;6274113;28;20049;-73
2021/08/07 01:25:46;;;;;;;10.27;5.00;;;;;;;14.33;100.00;100225.13;6273617;28;20057;-74
2021/08/07 01:28:52;;;;;;;9.93;5.00;;;;;;;14.30;100.00;100225.38;6273702;28;20052;-74
2021/08/07 01:31:54;;;;;;;11.70;5.65;;;;;;;14.27;100.00;100231.75;6273776;28;20060;-73
2021/08/07 01:34:57;;;;;;;5.53;4.63;;;;;;;14.25;100.00;100224.88;6273156;28;20053;-74
2021/08/07 01:37:58;;;;;;;7.40;4.90;;;;;;;14.21;100.00;100233.03;6273533;28;20053;-73
2021/08/07 01:41:00;;;;;;;9.00;4.90;;;;;;;14.16;100.00;100218.50;6273316;28;20060;-74
2021/08/07 01:44:03;;;;;;;6.57;4.82;;;;;;;14.12;100.00;100217.88;6273352;28;20488;-74
2021/08/07 01:47:10;;;;;;;14.77;4.95;;;;;;;14.15;100.00;100216.81;6273133;28;20049;-73
2021/08/07 01:50:20;;;;;;;8.70;5.72;;;;;;;14.09;100.00;100218.16;6273153;28;20053;-75
2021/08/07 01:53:24;;;;;;;9.98;5.30;;;;;;;14.09;100.00;100218.16;6272907;28;20419;-73
2021/08/07 01:56:29;;;;;;;7.88;4.72;;;;;;;14.10;100.00;100219.81;6272820;28;20076;-73
2021/08/07 01:59:34;;;;;;;8.90;4.88;;;;;;;14.12;100.00;100217.88;6272962;28;20052;-73
2021/08/07 02:02:36;;;;;;;8.90;4.88;;;;;;;14.08;100.00;100213.81;6272314;28;20045;-74
2021/08/07 02:05:38;;;;;;;12.88;5.70;;;;;;;14.09;100.00;100215.50;6272595;28;20427;-74
2021/08/07 02:08:40;;;;;;;7.28;5.05;;;;;;;14.10;100.00;100206.63;6272880;28;20044;-73
2021/08/07 02:11:42;;;;;;;9.98;5.00;;;;;;;14.09;100.00;100207.56;6272788;28;20484;-73
2021/08/07 02:14:45;;;;;;;9.43;5.70;;;;;;;14.09;100.00;100209.38;6271929;28;20492;-73
2021/08/07 02:17:47;;;;;;;15.85;5.43;;;;;;;14.08;100.00;100205.91;6272453;28;20415;-73
2021/08/07 02:20:50;;;;;;;5.63;4.78;;;;;;;14.08;100.00;100203.25;6272165;28;20385;-74
2021/08/07 02:23:51;;;;;;;7.47;5.15;;;;;;;14.03;100.00;100209.81;6272330;28;20412;-74
2021/08/07 02:26:54;;;;;;;8.15;5.18;;;;;;;14.01;100.00;100204.66;6272145;28;20060;-74
2021/08/07 02:29:56;;;;;;;11.10;5.75;;;;;;;14.00;100.00;100204.81;6272405;28;20045;-74
2021/08/07 02:32:58;;;;;;;9.10;5.22;;;;;;;13.96;100.00;100209.47;6272066;28;20492;-74
2021/08/07 02:36:01;;;;;;;9.35;5.40;;;;;;;13.93;100.00;100199.97;6271791;28;20056;-74
2021/08/07 02:39:03;;;;;;;7.53;5.07;;;;;;;13.90;100.00;100204.66;6271993;28;20042;-74
2021/08/07 02:42:05;;;;;;;8.95;5.35;;;;;;;13.88;100.00;100199.47;6271895;28;20396;-73
2021/08/07 02:45:09;;;;;;;6.20;5.38;;;;;;;13.87;100.00;100195.16;6271243;28;20439;-73
2021/08/07 02:48:11;;;;;;;7.53;4.63;;;;;;;13.88;100.00;100204.75;6271742;28;20052;-73
2021/08/07 02:51:13;;;;;;;6.15;4.85;;;;;;;13.86;100.00;100195.28;6271963;28;20492;-73
2021/08/07 02:54:15;;;;;;;8.10;4.78;;;;;;;13.87;100.00;100200.44;6271272;28;20139;-74
2021/08/07 02:57:16;;;;;;;6.95;4.85;;;;;;;13.86;100.00;100192.66;6271842;28;20068;-73
2021/08/07 03:00:19;;;;;;;12.98;5.05;;;;;;;13.85;100.00;100191.81;6271612;28;20041;-73
2021/08/07 03:03:21;;;;;;;15.43;5.43;;;;;;;13.86;100.00;100185.56;6271008;28;20064;-73
2021/08/07 03:06:24;;;;;;;6.82;4.80;;;;;;;13.87;100.00;100189.88;6271332;28;20419;-74
2021/08/07 03:09:25;;;;;;;9.80;4.85;;;;;;;13.92;100.00;100182.44;6271434;28;20067;-74
2021/08/07 03:12:27;;;;;;;9.02;4.80;;;;;;;13.93;100.00;100178.84;6271442;28;20052;-74
2021/08/07 03:15:30;;;;;;;6.65;4.68;;;;;;;13.96;100.00;100178.59;6271014;28;20072;-74
2021/08/07 03:18:31;;;;;;;8.07;5.55;;;;;;;13.99;100.00;100177.53;6271395;28;20049;-73
2021/08/07 03:21:33;;;;;;;9.23;4.82;;;;;;;13.99;100.00;100177.53;6271377;28;20045;-74
2021/08/07 03:24:34;;;;;;;5.15;4.63;;;;;;;13.99;100.00;100182.81;6271002;28;20517;-74
2021/08/07 03:27:35;;;;;;;6.88;4.32;;;;;;;14.02;100.00;100182.56;6272901;28;20052;-74
2021/08/07 03:30:38;;;;;;;6.88;4.30;;;;;;;14.02;100.00;100181.72;6276415;28;20055;-74
2021/08/07 03:33:39;;;;;;;10.90;4.90;;;;;;;14.03;100.00;100173.69;6276051;28;20055;-74
2021/08/07 03:36:42;;;;;;;6.68;4.43;;;;;;;14.03;100.00;100175.47;6276033;28;20048;-74
2021/08/07 03:39:44;;;;;;;9.80;4.57;;;;;;;14.06;100.00;100178.75;6276116;28;20045;-73
2021/08/07 03:42:45;;;;;;;6.40;4.28;;;;;;;14.06;100.00;100193.75;6276039;28;20419;-74
2021/08/07 03:45:48;;;;;;;6.60;4.95;;;;;;;14.08;100.00;100197.97;6275692;28;20053;-73
2021/08/07 03:48:50;;;;;;;6.82;4.70;;;;;;;14.08;100.00;100189.19;6275514;28;20045;-74
2021/08/07 03:51:52;;;;;;;6.63;4.53;;;;;;;14.07;100.00;100190.16;6238401;28;20388;-73
2021/08/07 03:54:53;;;;;;;7.10;4.22;;;;;;;14.07;100.00;100190.97;6236106;28;20045;-74
2021/08/07 03:57:57;;;;;;;4.50;3.97;;;;;;;14.07;100.00;100195.44;6237836;28;20062;-73
2021/08/07 04:01:00;;;;;;;8.48;4.47;;;;;;;14.04;100.00;100193.88;6236739;28;20046;-73
2021/08/07 04:04:01;;;;;;;10.43;4.22;;;;;;;14.04;100.00;100188.59;6236128;28;20072;-74
2021/08/07 04:07:03;;;;;;;10.77;4.72;;;;;;;14.05;100.00;100185.00;6237317;28;20049;-74
2021/08/07 04:10:05;;;;;;;10.70;4.38;;;;;;;14.06;100.00;100189.31;6236255;28;20041;-73
2021/08/07 04:13:07;;;;;;;5.30;3.85;;;;;;;14.07;100.00;100192.78;6231436;28;20050;-74
2021/08/07 04:16:10;;;;;;;9.43;4.00;;;;;;;14.05;100.00;100198.19;6225592;28;20053;-74
2021/08/07 04:19:11;;;;;;;5.30;3.90;;;;;;;14.05;100.00;100192.06;6225897;28;20409;-73
2021/08/07 04:22:12;;;;;;;8.63;4.45;;;;;;;14.04;100.00;100188.59;6226029;28;20054;-74
2021/08/07 04:25:14;;;;;;;6.38;4.22;;;;;;;14.05;100.00;100184.16;6225569;28;20053;-74
2021/08/07 04:28:16;;;;;;;8.15;3.67;;;;;;;14.08;100.00;100186.53;6225808;28;20397;-74
2021/08/07 04:31:18;;;;;;;7.28;3.92;;;;;;;14.08;100.00;100184.75;6225497;28;20408;-74
2021/08/07 04:34:19;;;;;;;14.77;3.97;;;;;;;14.09;100.00;100183.78;6225406;28;20045;-74
2021/08/07 04:37:21;;;;;;;12.32;4.18;;;;;;;14.12;100.00;100183.53;6225377;28;20054;-74
2021/08/07 04:40:24;;;;;;;6.72;4.15;;;;;;;14.18;100.00;100190.19;6225661;28;20041;-74
2021/08/07 04:43:27;;;;;;;8.15;3.90;;;;;;;14.19;100.00;100187.41;6225285;28;20057;-74
2021/08/07 04:46:30;;;;;;;5.57;3.25;;;;;;;14.23;100.00;100189.81;6225488;28;20136;-74
2021/08/07 04:49:32;;;;;;;7.53;4.10;;;;;;;14.26;100.00;100195.72;6225091;28;20408;-74
2021/08/07 04:52:33;;;;;;;7.05;4.10;;;;;;;14.32;100.00;100203.16;6225518;28;20053;-74
2021/08/07 04:55:35;;;;;;;7.45;4.32;;;;;;;14.37;100.00;100190.41;6224926;28;20057;-74
2021/08/07 04:58:36;;;;;;;5.90;4.03;;;;;;;14.40;100.00;100189.34;6224911;28;20045;-73
2021/08/07 05:01:39;;;;;;;10.30;4.13;;;;;;;14.45;100.00;100197.75;6224614;28;20050;-74
2021/08/07 05:04:40;;;;;;;5.00;3.40;;;;;;;14.49;100.00;100193.09;6224838;28;20416;-73
2021/08/07 05:07:42;;;;;;;5.57;3.80;;;;;;;14.49;100.00;100204.53;6224958;28;20061;-74
2021/08/07 05:10:43;;;;;;;6.60;3.28;;;;;;;14.49;100.00;100198.38;6224691;28;20394;-74
2021/08/07 05:13:45;;;;;;;6.82;3.20;;;;;;;14.48;100.00;100194.88;6224665;28;20061;-73
2021/08/07 05:16:47;;;;;;;4.07;2.80;;;;;;;14.52;100.00;100198.13;6224483;28;20440;-74
2021/08/07 05:19:49;;;;;;;4.25;3.28;;;;;;;14.55;100.00;100200.56;6224708;28;20057;-73
2021/08/07 05:22:50;;;;;;;7.32;3.38;;;;;;;14.60;100.00;100199.22;6224481;28;20061;-74
2021/08/07 05:25:51;;;;;;;4.95;3.58;;;;;;;14.70;100.00;100194.88;6224141;28;20057;-74
2021/08/07 05:28:53;;;;;;;3.97;2.95;;;;;;;14.79;100.00;100201.25;6224372;28;20058;-73
2021/08/07 05:31:55;;;;;;;8.27;2.78;;;;;;;14.88;100.00;100202.31;6224443;28;20065;-74
2021/08/07 05:34:57;;;;;;;4.57;3.30;;;;;;;14.98;100.00;100204.09;6230368;28;20049;-74
2021/08/07 05:37:58;;;;;;;8.40;2.83;;;;;;;15.05;100.00;100206.25;6235934;28;20042;-73
2021/08/07 05:40:59;;;;;;;3.33;2.60;;;;;;;15.12;100.00;100207.44;6230431;28;20058;-72
2021/08/07 05:44:01;;;;;;;5.88;3.00;;;;;;;15.17;100.00;100207.91;6223562;28;20061;-74
2021/08/07 05:47:04;;;;;;;3.72;2.80;;;;;;;15.18;100.00;100212.25;6223996;28;20054;-75
2021/08/07 05:50:06;;;;;;;8.95;2.50;;;;;;;15.20;100.00;100212.94;6223240;28;20060;-74
2021/08/07 05:53:08;;;;;;;4.93;2.53;;;;;;;15.19;100.00;100205.97;6223996;28;20421;-73
2021/08/07 05:56:09;;;;;;;4.50;2.80;;;;;;;15.19;100.00;100206.81;6223408;28;20050;-73
2021/08/07 05:59:10;;;;;;;5.95;2.72;;;;;;;15.25;100.00;100207.28;6223743;28;20054;-74
2021/08/07 06:02:13;;;;;;;3.95;2.42;;;;;;;15.25;100.00;100208.13;6223239;28;20049;-74
2021/08/07 06:05:14;;;;;;;3.00;2.10;;;;;;;15.26;100.00;100204.53;6223365;28;20050;-74
2021/08/07 06:08:16;;;;;;;2.85;2.25;;;;;;;15.32;100.00;100196.06;6223560;28;20060;-74
2021/08/07 06:11:17;;;;;;;4.95;2.40;;;;;;;15.33;100.00;100202.22;6224689;28;20050;-74
2021/08/07 06:14:18;;;;;;;8.02;2.60;;;;;;;15.34;100.00;100204.72;6238927;28;20056;-73
2021/08/07 06:17:21;;;;;;;3.75;2.50;;;;;;;15.37;100.00;100193.06;6242574;28;20072;-73
2021/08/07 06:20:23;;;;;;;3.53;2.42;;;;;;;15.40;100.00;100196.28;6234998;28;20037;-74
2021/08/07 06:23:25;;;;;;;5.72;2.63;;;;;;;15.42;100.00;100190.88;6227229;28;20076;-74
2021/08/07 06:26:26;;;;;;;5.55;2.40;;;;;;;15.43;100.00;100190.72;6230548;28;20057;-73
2021/08/07 06:29:28;;;;;;;5.25;2.70;;;;;;;15.46;100.00;100192.28;6225457;28;20049;-74
2021/08/07 06:32:30;;;;;;;5.78;2.38;;;;;;;15.48;100.00;100193.00;6223051;28;20050;-74
2021/08/07 06:35:31;;;;;;;6.93;2.30;;;;;;;15.49;100.00;100200.00;6230789;28;20045;-74
2021/08/07 06:38:33;;;;;;;6.35;2.50;;;;;;;15.47;100.00;100192.16;6232982;28;20052;-75
2021/08/07 06:41:34;;;;;;;5.18;2.42;;;;;;;15.47;100.00;100194.81;6233787;28;20081;-74
2021/08/07 06:44:36;;;;;;;8.93;2.85;;;;;;;15.46;100.00;100195.78;6261611;22;20049;-77
2021/08/07 06:47:39;;;;;;;5.78;2.67;;;;;;;15.47;100.00;100197.44;6261279;28;20447;-76
2021/08/07 06:50:40;;;;;;;3.22;2.50;;;;;;;15.44;100.00;100195.09;6257094;28;20159;-76
2021/08/07 06:53:41;;;;;;;5.15;2.50;;;;;;;15.46;100.00;100197.59;6246576;28;20115;-76
2021/08/07 06:56:47;;;;;;;3.63;2.38;;;;;;;15.48;100.00;100190.34;6254870;28;20052;-76
2021/08/07 06:59:49;;;;;;;3.53;2.20;;;;;;;15.52;100.00;100194.44;6247042;28;20084;-76
2021/08/07 07:02:52;;;;;;;6.63;2.42;;;;;;;15.64;100.00;100189.97;6245655;28;20484;-76
2021/08/07 07:05:53;;;;;;;2.95;2.25;;;;;;;15.64;100.00;100188.16;6254083;28;20051;-76
2021/08/07 07:08:54;;;;;;;6.22;2.22;;;;;;;15.69;100.00;100190.41;6263213;28;20056;-75
2021/08/07 07:11:56;;;;;;;6.85;2.30;;;;;;;15.78;100.00;100187.00;6271501;28;20052;-76
2021/08/07 07:14:57;;;;;;;5.35;2.20;;;;;;;15.87;100.00;100182.72;6271197;28;20405;-77
2021/08/07 07:18:00;;;;;;;3.58;2.10;;;;;;;15.94;100.00;100191.81;6271328;28;20049;-76
2021/08/07 07:21:01;;;;;;;7.43;2.55;;;;;;;16.00;100.00;100187.84;6271235;28;20041;-76
2021/08/07 07:24:02;;;;;;;5.40;2.30;;;;;;;16.07;100.00;100189.81;6271066;28;20052;-76
2021/08/07 07:27:04;;;;;;;4.38;2.05;;;;;;;16.28;100.00;100194.28;6271082;28;20507;-76
2021/08/07 07:30:07;;;;;;;5.75;2.15;;;;;;;16.22;100.00;100190.34;6271406;28;20415;-76
2021/08/07 07:33:12;;;;;;;5.07;2.08;;;;;;;16.29;100.00;100193.28;6253553;28;20056;-76
2021/08/07 07:36:13;;;;;;;3.45;2.22;;;;;;;16.32;100.00;100198.34;6262896;28;20396;-76
2021/08/07 07:39:14;;;;;;;6.00;2.83;;;;;;;16.38;100.00;100190.69;6259831;28;20056;-76
2021/08/07 07:42:16;;;;;;;9.13;2.78;;;;;;;16.47;100.00;100210.25;6271297;28;20049;-77
2021/08/07 07:45:17;;;;;;;4.30;2.60;;;;;;;16.53;100.00;100200.94;6257604;28;20045;-75
2021/08/07 07:48:20;;;;;;;4.38;2.70;;;;;;;16.67;100.00;100205.91;6231546;28;20057;-76
2021/08/07 07:51:21;;;;;;;5.50;2.85;;;;;;;16.57;100.00;100205.84;6242052;28;20491;-76
2021/08/07 07:54:22;;;;;;;3.50;2.30;;;;;;;16.60;100.00;100205.56;6245364;28;20048;-76
2021/08/07 07:57:24;;;;;;;5.18;2.47;;;;;;;16.61;100.00;100206.41;6232667;28;20050;-77
2021/08/07 08:00:25;;;;;;;6.43;2.00;;;;;;;16.61;100.00;100203.75;6232056;28;20496;-76
2021/08/07 08:03:28;;;;;;;4.40;1.40;;;;;;;16.63;100.00;100210.63;6232283;28;20049;-77
2021/08/07 08:06:29;;;;;;;3.08;1.67;;;;;;;16.69;100.00;100198.63;6231771;28;20072;-76
2021/08/07 08:09:30;;;;;;;4.90;1.83;;;;;;;16.72;100.00;100203.72;6233207;28;20046;-77
2021/08/07 08:12:32;;;;;;;2.85;1.58;;;;;;;16.73;100.00;100200.06;6231065;28;20053;-76
2021/08/07 08:15:34;;;;;;;6.88;1.50;;;;;;;16.79;100.00;100201.34;6237263;28;20046;-75
2021/08/07 08:18:37;;;;;;;4.82;1.55;;;;;;;16.85;100.00;100193.69;6235644;28;20107;-76
2021/08/07 08:21:39;;;;;;;4.93;1.60;;;;;;;16.89;100.00;100194.22;6237414;28;20094;-76
2021/08/07 08:24:40;;;;;;;5.05;1.55;;;;;;;16.90;100.00;100195.94;6235672;28;20160;-76
2021/08/07 08:27:41;;;;;;;3.72;1.58;;;;;;;16.94;100.00;100192.00;6236981;28;20046;-76
2021/08/07 08:30:43;;;;;;;6.95;1.45;;;;;;;17.03;100.00;100185.88;6236125;28;20048;-76
2021/08/07 08:33:46;;;;;;;3.25;1.52;;;;;;;17.23;100.00;100179.63;6236025;28;20072;-76
2021/08/07 08:36:47;;;;;;;2.05;1.25;;;;;;;17.24;100.00;100191.09;6234893;28;20500;-77
2021/08/07 08:39:48;;;;;;;4.32;1.42;;;;;;;17.32;100.00;100182.44;6236780;28;20052;-76
2021/08/07 08:42:51;;;;;;;6.15;1.60;;;;;;;17.29;100.00;100185.38;6237542;28;20049;-77
2021/08/07 08:45:53;;;;;;;2.70;1.27;;;;;;;17.30;100.00;100179.06;6229812;28;20505;-76
2021/08/07 08:48:56;;;;;;;4.93;1.33;;;;;;;17.39;100.00;100175.56;6226715;28;20053;-78
2021/08/07 08:52:00;;;;;;;4.13;1.20;;;;;;;17.48;100.00;100161.44;6227832;28;20050;-78
2021/08/07 08:55:01;;;;;;;5.32;1.30;;;;;;;17.65;99.64;100168.72;6227851;28;20054;-77
2021/08/07 08:58:03;;;;;;;3.22;1.30;;;;;;;17.66;99.05;100158.91;6226819;28;20045;-77
2021/08/07 09:01:05;;;;;;;5.22;1.20;;;;;;;17.69;100.00;100161.31;6228808;28;20073;-77
2021/08/07 09:04:08;;;;;;;1.58;1.00;;;;;;;17.66;99.08;100156.25;6225875;28;20054;-76
2021/08/07 09:07:14;;;;;;;2.78;1.20;;;;;;;17.76;95.78;100159.81;6232772;28;20050;-79
2021/08/07 09:10:16;;;;;;;3.05;1.10;;;;;;;17.81;94.57;100162.03;6251792;28;20515;-79
2021/08/07 09:13:22;;;;;;;5.20;0.95;;;;;;;17.72;96.45;100156.56;6250369;28;20056;-77
2021/08/07 09:16:23;;;;;;;5.82;1.38;;;;;;;17.72;98.67;100161.03;6250978;28;20399;-79
2021/08/07 09:19:26;;;;;;;4.20;1.00;;;;;;;17.87;96.33;100158.78;6251490;28;20057;-79
2021/08/07 09:22:30;;;;;;;2.35;1.13;;;;;;;18.09;91.71;100152.31;6250788;28;20060;-80
2021/08/07 09:25:34;;;;;;;2.88;1.05;;;;;;;18.24;94.67;100148.19;6249960;28;20589;-79
2021/08/07 09:28:52;;;;;;;4.05;1.15;;;;;;;18.33;92.41;100147.31;6249386;28;20072;-78
2021/08/07 09:31:59;;;;;;;6.38;1.05;;;;;;;18.34;93.79;100142.81;6249764;28;20053;-78
2021/08/07 09:35:09;;;;;;;2.45;1.05;;;;;;;18.34;93.69;100141.00;6249324;28;20128;-78
2021/08/07 09:38:14;;;;;;;1.98;1.08;;;;;;;18.40;94.02;100137.78;6249676;28;20053;-78
2021/08/07 09:41:16;;;;;;;2.17;1.17;;;;;;;18.40;97.01;100136.94;6252169;28;20045;-79
2021/08/07 09:44:19;;;;;;;3.17;1.08;;;;;;;18.38;97.77;100139.72;6250679;28;20054;-78
2021/08/07 09:47:21;;;;;;;7.70;1.60;;;;;;;18.47;96.81;100133.50;6253201;28;20044;-78
2021/08/07 09:50:25;;;;;;;3.92;1.00;;;;;;;18.37;97.07;100130.06;6263461;28;20528;-79
2021/08/07 09:53:28;;;;;;;4.53;1.00;;;;;;;18.24;97.33;100124.25;6270368;28;20510;-76
2021/08/07 09:56:42;;;;;;;8.55;1.42;;;;;;;18.27;95.32;100123.97;6262016;28;20063;-76
2021/08/07 09:59:48;;;;;;;2.85;1.38;;;;;;;18.32;95.94;100123.53;6271392;28;20430;-78
2021/08/07 10:02:49;;;;;;;2.03;1.10;;;;;;;18.37;94.84;100119.44;6263722;28;20554;-79
2021/08/07 10:05:52;;;;;;;2.65;1.27;;;;;;;18.50;94.07;100125.25;6273583;28;20052;-78
2021/08/07 10:08:53;;;;;;;2.67;1.42;;;;;;;18.51;91.53;100118.94;6273191;28;20136;-77
2021/08/07 10:12:01;;;;;;;2.78;1.40;;;;;;;18.60;93.51;100119.03;6273458;28;20048;-77
2021/08/07 10:15:03;;;;;;;2.53;1.40;;;;;;;18.73;96.69;100112.41;6272977;28;20052;-76
2021/08/07 10:18:05;;;;;;;2.13;1.30;;;;;;;18.64;96.92;100115.09;6272924;28;20056;-76
2021/08/07 10:21:08;;;;;;;3.83;1.52;;;;;;;18.66;91.94;100105.13;6274424;28;20207;-77
2021/08/07 10:24:12;;;;;;;6.13;1.33;;;;;;;18.57;93.95;100106.00;6274525;28;20049;-77
2021/08/07 10:27:17;;;;;;;5.60;1.52;;;;;;;18.57;91.31;100111.34;6275201;28;20052;-78
2021/08/07 10:30:18;;;;;;;2.55;1.45;;;;;;;18.68;89.61;100111.16;6274097;28;20626;-77
2021/08/07 10:33:21;;;;;;;4.30;1.10;;;;;;;18.59;94.94;100102.22;6274338;28;20052;-77
2021/08/07 10:36:25;;;;;;;2.33;1.50;;;;;;;18.58;95.98;100097.91;6275446;28;20057;-77
2021/08/07 10:39:29;;;;;;;2.55;1.20;;;;;;;18.62;90.68;100091.28;6273844;28;20134;-77
2021/08/07 10:42:32;;;;;;;4.68;1.20;;;;;;;18.77;89.09;100086.31;6273292;28;20480;-77
2021/08/07 10:45:33;;;;;;;2.83;1.15;;;;;;;18.88;87.67;100085.25;6272515;28;20092;-77
2021/08/07 10:48:37;;;;;;;1.50;0.93;;;;;;;18.78;86.38;100076.50;6272882;28;20060;-77
2021/08/07 10:51:41;;;;;;;2.92;1.40;;;;;;;18.72;88.96;100081.44;6273265;28;20060;-77
2021/08/07 10:54:43;;;;;;;3.38;1.67;;;;;;;18.65;89.91;100075.00;6273341;28;20059;-76
2021/08/07 10:57:44;;;;;;;3.63;1.20;;;;;;;18.61;91.04;100064.81;6273266;28;20059;-77
2021/08/07 11:00:45;;;;;;;2.95;1.30;;;;;;;18.75;90.36;100067.81;6272962;28;20507;-78
2021/08/07 11:03:48;;;;;;;6.25;1.77;;;;;;;18.88;84.55;100062.13;6274095;28;20045;-79
2021/08/07 11:07:16;;;;;;;12.52;2.55;;;;;;;18.73;87.39;100067.16;6271778;28;20496;-79
2021/08/07 11:10:18;;;;;;;2.67;1.30;;;;;;;18.55;90.32;100074.25;6271956;28;20064;-78
2021/08/07 11:13:25;;;;;;;3.30;1.40;;;;;;;18.43;90.70;100078.09;6271244;28;20088;-76
2021/08/07 11:16:27;;;;;;;2.75;1.50;;;;;;;18.41;89.70;100075.59;6271461;28;20055;-78
2021/08/07 11:19:48;;;;;;;2.92;1.48;;;;;;;18.42;91.37;100079.06;6272107;28;20060;-81
2021/08/07 11:23:10;;;;;;;2.78;1.92;;;;;;;18.23;95.86;100085.34;6268673;28;20096;-79
2021/08/07 11:26:11;;;;;;;6.20;2.30;;;;;;;17.94;100.00;100086.31;6237010;28;20045;-79
2021/08/07 11:29:13;;;;;;;4.80;2.55;;;;;;;17.65;100.00;100083.69;6238932;28;20102;-80
2021/08/07 11:32:17;;;;;;;4.10;2.65;;;;;;;17.37;100.00;100077.44;6243074;28;20524;-79
2021/08/07 11:35:18;;;;;;;5.88;2.72;;;;;;;17.34;100.00;100068.91;6234599;28;20060;-77
2021/08/07 11:38:23;;;;;;;6.20;2.67;;;;;;;17.24;100.00;100069.78;6234329;28;20054;-80
2021/08/07 11:41:39;;;;;;;7.10;2.88;;;;;;;17.19;100.00;100063.22;6232902;28;20077;-79
2021/08/07 11:44:42;;;;;;;5.15;2.85;;;;;;;17.33;100.00;100059.28;6245110;28;20563;-76
2021/08/07 11:47:45;;;;;;;11.13;3.35;;;;;;;17.24;100.00;100045.03;6247027;28;20415;-79
2021/08/07 11:50:47;;;;;;;8.50;3.65;;;;;;;17.10;100.00;100062.22;6252721;28;20045;-78
2021/08/07 11:53:50;;;;;;;8.27;3.47;;;;;;;16.90;100.00;100095.06;6252101;28;20049;-78
2021/08/07 11:56:51;;;;;;;10.18;5.20;;;;;;;16.65;100.00;100094.56;6255390;28;20540;-76
2021/08/07 11:59:53;;;;;;;7.68;4.57;;;;;;;16.35;100.00;100066.31;6254287;28;20045;-78
2021/08/07 12:02:59;;;;;;;8.65;4.25;;;;;;;16.21;100.00;100071.97;6252250;28;20488;-78
2021/08/07 12:06:01;;;;;;;9.93;5.13;;;;;;;16.22;100.00;100079.81;6250587;28;20041;-77
2021/08/07 12:09:11;;;;;;;10.88;4.65;;;;;;;16.02;100.00;100078.06;6251799;28;20126;-75
2021/08/07 12:12:15;;;;;;;6.03;3.20;;;;;;;15.92;100.00;100069.22;6259480;28;20060;-76
2021/08/07 12:15:17;;;;;;;6.43;3.47;;;;;;;15.91;100.00;100088.75;6264623;28;20059;-74
2021/08/07 12:18:18;;;;;;;10.60;4.70;;;;;;;15.93;100.00;100087.63;6251196;28;20059;-77
2021/08/07 12:21:29;;;;;;;13.63;4.80;;;;;;;16.01;100.00;100067.59;6235134;28;20060;-74
2021/08/07 12:24:32;;;;;;;9.95;5.13;;;;;;;16.09;100.00;100051.88;6231712;28;20045;-74
2021/08/07 12:27:33;;;;;;;11.30;5.32;;;;;;;16.18;100.00;100041.28;6234385;28;20049;-75
2021/08/07 12:30:36;;;;;;;11.27;5.22;;;;;;;16.35;100.00;100028.34;6231876;28;20056;-75
2021/08/07 12:33:40;;;;;;;11.48;5.43;;;;;;;16.57;100.00;100022.78;6237413;28;20052;-75
2021/08/07 12:36:42;;;;;;;13.68;5.20;;;;;;;17.25;100.00;100028.94;6244631;28;20049;-75
2021/08/07 12:39:47;;;;;;;10.70;4.85;;;;;;;17.67;100.00;100025.09;6260905;28;20045;-79
2021/08/07 12:42:50;;;;;;;7.47;4.63;;;;;;;18.14;100.00;100023.22;6261412;28;20056;-78
2021/08/07 12:46:02;;;;;;;7.70;4.70;;;;;;;18.44;100.00;100023.88;6260246;28;20052;-78
2021/08/07 12:49:04;;;;;;;5.32;2.72;;;;;;;18.60;100.00;100031.22;6267585;22;20037;-82
2021/08/07 12:52:08;;;;;;;5.05;2.30;;;;;;;18.90;100.00;100014.06;6260945;28;20038;-82
2021/08/07 12:55:11;;;;;;;5.97;2.65;;;;;;;19.17;100.00;100005.97;6259864;28;20053;-83
2021/08/07 12:58:15;;;;;;;4.25;2.15;;;;;;;19.43;100.00;100003.28;6253472;28;20441;-82
2021/08/07 13:01:17;;;;;;;4.30;1.65;;;;;;;19.40;100.00;100008.13;6249539;28;20049;-81
2021/08/07 13:04:19;;;;;;;5.28;1.50;;;;;;;18.85;100.00;100001.22;6257485;28;20048;-77
2021/08/07 13:07:29;;;;;;;6.22;1.70;;;;;;;18.48;100.00;100006.63;6258285;28;20045;-82
2021/08/07 13:10:32;;;;;;;4.93;2.00;;;;;;;18.59;100.00;99997.59;6246763;28;20049;-82
2021/08/07 13:13:38;;;;;;;5.43;2.20;;;;;;;18.61;100.00;99995.63;6246404;28;20049;-81
2021/08/07 13:16:44;;;;;;;4.03;1.80;;;;;;;18.61;100.00;99995.63;6241527;28;20542;-81
2021/08/07 13:19:46;;;;;;;3.03;1.73;;;;;;;18.56;100.00;99996.06;6245145;28;20057;-81
2021/08/07 13:22:58;;;;;;;5.00;2.20;;;;;;;18.89;100.00;99996.38;6240717;28;20037;-81
2021/08/07 13:26:07;;;;;;;5.18;1.85;;;;;;;19.14;100.00;99994.78;6240810;28;20046;-82
2021/08/07 13:29:17;;;;;;;3.30;2.15;;;;;;;19.19;100.00;99981.81;6236807;28;20054;-82
2021/08/07 13:32:20;;;;;;;5.45;2.38;;;;;;;19.34;100.00;99974.91;6237179;28;20049;-82
2021/08/07 13:35:21;;;;;;;7.45;2.05;;;;;;;19.61;100.00;99978.44;6236893;28;20057;-80
2021/08/07 13:38:23;;;;;;;6.55;2.20;;;;;;;19.52;100.00;99973.00;6226008;28;20050;-79
2021/08/07 13:41:25;;;;;;;2.95;1.98;;;;;;;19.27;100.00;99971.22;6233400;28;20060;-79
2021/08/07 13:44:27;;;;;;;7.50;2.20;;;;;;;19.17;100.00;99968.66;6235361;28;20042;-81
2021/08/07 13:47:28;;;;;;;6.00;2.20;;;;;;;19.38;100.00;99973.59;6248152;28;20064;-81
2021/08/07 13:50:30;;;;;;;2.67;1.80;;;;;;;19.42;100.00;99976.81;6251523;28;20048;-80
2021/08/07 13:53:31;;;;;;;3.85;1.70;;;;;;;19.45;100.00;99977.31;6235617;28;20038;-82
2021/08/07 13:56:34;;;;;;;6.13;1.88;;;;;;;19.43;100.00;99971.31;6235175;28;20049;-81
2021/08/07 13:59:35;;;;;;;2.53;1.90;;;;;;;19.59;100.00;99969.75;6246777;28;20056;-81
2021/08/07 14:02:36;;;;;;;4.47;2.15;;;;;;;20.15;100.00;99958.47;6239165;28;20049;-79